sensor_id;sensor_type;location;lat;lon;timestamp;temperature;humidity
22968;DHT22;11650;48.106;-1.696;2023-03-23T00:02:26;12.40;99.90
22968;DHT22;11650;48.106;-1.696;2023-03-23T00:04:52;12.40;99.90
22968;DHT22;11650;48.106;-1.696;2023-03-23T00:07:19;12.40;99.90
22968;DHT22;11650;48.106;-1.696;2023-03-23T00:09:47;12.40;99.90
22968;DHT22;11650;48.106;-1.696;2023-03-23T00:12:19;12.40;99.90
22968;DHT22;11650;48.106;-1.696;2023-03-23T00:14:44;12.40;99.90
22968;DHT22;11650;48.106;-1.696;2023-03-23T00:17:10;12.50;99.90
22968;DHT22;11650;48.106;-1.696;2023-03-23T00:19:39;12.50;99.90
22968;DHT22;11650;48.106;-1.696;2023-03-23T00:22:12;12.50;99.90
22968;DHT22;11650;48.106;-1.696;2023-03-23T00:24:38;12.50;99.90
22968;DHT22;11650;48.106;-1.696;2023-03-23T00:27:04;12.50;99.90
22968;DHT22;11650;48.106;-1.696;2023-03-23T00:29:29;12.50;99.90
22968;DHT22;11650;48.106;-1.696;2023-03-23T00:31:57;12.50;99.90
22968;DHT22;11650;48.106;-1.696;2023-03-23T00:34:23;12.40;99.90
22968;DHT22;11650;48.106;-1.696;2023-03-23T00:36:51;12.50;99.90
22968;DHT22;11650;48.106;-1.696;2023-03-23T00:39:19;12.50;99.90
22968;DHT22;11650;48.106;-1.696;2023-03-23T00:41:46;12.50;99.90
22968;DHT22;11650;48.106;-1.696;2023-03-23T00:44:13;12.50;99.90
22968;DHT22;11650;48.106;-1.696;2023-03-23T00:46:47;12.50;99.90
22968;DHT22;11650;48.106;-1.696;2023-03-23T00:49:16;12.40;99.90
22968;DHT22;11650;48.106;-1.696;2023-03-23T00:51:43;12.50;99.90
22968;DHT22;11650;48.106;-1.696;2023-03-23T00:54:09;12.50;99.90
22968;DHT22;11650;48.106;-1.696;2023-03-23T00:56:35;12.40;99.90
22968;DHT22;11650;48.106;-1.696;2023-03-23T00:59:02;12.40;99.90
22968;DHT22;11650;48.106;-1.696;2023-03-23T01:01:28;12.40;99.90
22968;DHT22;11650;48.106;-1.696;2023-03-23T01:03:53;12.40;99.90
22968;DHT22;11650;48.106;-1.696;2023-03-23T01:06:27;12.40;99.90
22968;DHT22;11650;48.106;-1.696;2023-03-23T01:08:53;12.40;99.90
22968;DHT22;11650;48.106;-1.696;2023-03-23T01:11:19;12.40;99.90
22968;DHT22;11650;48.106;-1.696;2023-03-23T01:13:45;12.40;99.90
22968;DHT22;11650;48.106;-1.696;2023-03-23T01:16:11;12.50;99.90
22968;DHT22;11650;48.106;-1.696;2023-03-23T01:18:37;12.50;99.90
22968;DHT22;11650;48.106;-1.696;2023-03-23T01:21:12;12.50;99.90
22968;DHT22;11650;48.106;-1.696;2023-03-23T01:23:38;12.50;99.90
22968;DHT22;11650;48.106;-1.696;2023-03-23T01:26:10;12.50;99.90
22968;DHT22;11650;48.106;-1.696;2023-03-23T01:28:36;12.50;99.90
22968;DHT22;11650;48.106;-1.696;2023-03-23T01:31:04;12.50;99.90
22968;DHT22;11650;48.106;-1.696;2023-03-23T01:33:31;12.40;99.90
22968;DHT22;11650;48.106;-1.696;2023-03-23T01:35:57;12.40;99.90
22968;DHT22;11650;48.106;-1.696;2023-03-23T01:38:22;12.40;99.90
22968;DHT22;11650;48.106;-1.696;2023-03-23T01:40:48;12.40;99.90
22968;DHT22;11650;48.106;-1.696;2023-03-23T01:43:15;12.40;99.90
22968;DHT22;11650;48.106;-1.696;2023-03-23T01:45:41;12.40;99.90
22968;DHT22;11650;48.106;-1.696;2023-03-23T01:48:21;12.40;99.90
22968;DHT22;11650;48.106;-1.696;2023-03-23T01:53:26;12.30;99.90
22968;DHT22;11650;48.106;-1.696;2023-03-23T01:55:54;12.30;99.90
22968;DHT22;11650;48.106;-1.696;2023-03-23T01:58:23;12.40;99.90
22968;DHT22;11650;48.106;-1.696;2023-03-23T02:00:54;12.30;99.90
22968;DHT22;11650;48.106;-1.696;2023-03-23T02:03:21;12.30;99.90
22968;DHT22;11650;48.106;-1.696;2023-03-23T02:05:49;12.30;99.90
22968;DHT22;11650;48.106;-1.696;2023-03-23T02:08:17;12.40;99.90
22968;DHT22;11650;48.106;-1.696;2023-03-23T02:10:44;12.30;99.90
22968;DHT22;11650;48.106;-1.696;2023-03-23T02:13:11;12.30;99.90
22968;DHT22;11650;48.106;-1.696;2023-03-23T02:18:19;12.30;99.90
22968;DHT22;11650;48.106;-1.696;2023-03-23T02:31:40;12.10;99.90
22968;DHT22;11650;48.106;-1.696;2023-03-23T02:36:42;12.00;99.90
22968;DHT22;11650;48.106;-1.696;2023-03-23T02:42:16;12.10;99.90
22968;DHT22;11650;48.106;-1.696;2023-03-23T02:44:43;12.10;99.90
22968;DHT22;11650;48.106;-1.696;2023-03-23T02:47:19;12.10;99.90
22968;DHT22;11650;48.106;-1.696;2023-03-23T02:49:48;12.10;99.90
22968;DHT22;11650;48.106;-1.696;2023-03-23T02:52:20;12.10;99.90
22968;DHT22;11650;48.106;-1.696;2023-03-23T02:54:48;12.10;99.90
22968;DHT22;11650;48.106;-1.696;2023-03-23T02:57:14;12.10;99.90
22968;DHT22;11650;48.106;-1.696;2023-03-23T02:59:41;12.10;99.90
22968;DHT22;11650;48.106;-1.696;2023-03-23T03:02:13;12.00;99.90
22968;DHT22;11650;48.106;-1.696;2023-03-23T03:04:42;11.90;99.90
22968;DHT22;11650;48.106;-1.696;2023-03-23T03:13:31;11.80;99.90
22968;DHT22;11650;48.106;-1.696;2023-03-23T03:16:03;11.80;99.90
22968;DHT22;11650;48.106;-1.696;2023-03-23T03:18:39;11.70;99.90
22968;DHT22;11650;48.106;-1.696;2023-03-23T03:21:09;11.70;99.90
22968;DHT22;11650;48.106;-1.696;2023-03-23T03:23:39;11.70;99.90
22968;DHT22;11650;48.106;-1.696;2023-03-23T03:26:07;11.70;99.90
22968;DHT22;11650;48.106;-1.696;2023-03-23T03:28:36;11.80;99.90
22968;DHT22;11650;48.106;-1.696;2023-03-23T03:31:03;11.80;99.90
22968;DHT22;11650;48.106;-1.696;2023-03-23T03:33:30;11.90;99.90
22968;DHT22;11650;48.106;-1.696;2023-03-23T03:36:02;11.90;99.90
22968;DHT22;11650;48.106;-1.696;2023-03-23T03:38:28;11.90;99.90
22968;DHT22;11650;48.106;-1.696;2023-03-23T03:40:55;11.90;99.90
22968;DHT22;11650;48.106;-1.696;2023-03-23T03:43:21;11.90;99.90
22968;DHT22;11650;48.106;-1.696;2023-03-23T03:45:47;11.80;99.90
22968;DHT22;11650;48.106;-1.696;2023-03-23T03:48:12;11.80;99.90
22968;DHT22;11650;48.106;-1.696;2023-03-23T03:50:38;11.80;99.90
22968;DHT22;11650;48.106;-1.696;2023-03-23T03:53:05;11.80;99.90
22968;DHT22;11650;48.106;-1.696;2023-03-23T03:55:31;11.80;99.90
22968;DHT22;11650;48.106;-1.696;2023-03-23T03:58:02;11.80;99.90
22968;DHT22;11650;48.106;-1.696;2023-03-23T04:00:29;11.80;99.90
22968;DHT22;11650;48.106;-1.696;2023-03-23T04:02:55;11.80;99.90
22968;DHT22;11650;48.106;-1.696;2023-03-23T04:05:22;11.80;99.90
22968;DHT22;11650;48.106;-1.696;2023-03-23T04:07:48;11.80;99.90
22968;DHT22;11650;48.106;-1.696;2023-03-23T04:10:19;11.90;99.90
22968;DHT22;11650;48.106;-1.696;2023-03-23T04:12:49;11.90;99.90
22968;DHT22;11650;48.106;-1.696;2023-03-23T04:15:15;11.90;99.90
22968;DHT22;11650;48.106;-1.696;2023-03-23T04:17:41;11.90;99.90
22968;DHT22;11650;48.106;-1.696;2023-03-23T04:20:09;11.90;99.90
22968;DHT22;11650;48.106;-1.696;2023-03-23T04:22:38;11.90;99.90
22968;DHT22;11650;48.106;-1.696;2023-03-23T04:25:04;12.00;99.90
22968;DHT22;11650;48.106;-1.696;2023-03-23T04:27:32;12.00;99.90
22968;DHT22;11650;48.106;-1.696;2023-03-23T04:29:58;12.00;99.90
22968;DHT22;11650;48.106;-1.696;2023-03-23T04:32:27;12.00;99.90
22968;DHT22;11650;48.106;-1.696;2023-03-23T04:34:55;12.00;99.90
22968;DHT22;11650;48.106;-1.696;2023-03-23T04:37:22;12.10;99.90
22968;DHT22;11650;48.106;-1.696;2023-03-23T04:39:52;12.10;99.90
22968;DHT22;11650;48.106;-1.696;2023-03-23T04:42:27;12.00;99.90
22968;DHT22;11650;48.106;-1.696;2023-03-23T04:44:52;12.10;99.90
22968;DHT22;11650;48.106;-1.696;2023-03-23T04:47:19;12.10;99.90
22968;DHT22;11650;48.106;-1.696;2023-03-23T04:49:45;12.00;99.90
22968;DHT22;11650;48.106;-1.696;2023-03-23T04:52:11;12.10;99.90
22968;DHT22;11650;48.106;-1.696;2023-03-23T04:54:37;12.00;99.90
22968;DHT22;11650;48.106;-1.696;2023-03-23T04:57:03;12.00;99.90
22968;DHT22;11650;48.106;-1.696;2023-03-23T04:59:29;12.00;99.90
22968;DHT22;11650;48.106;-1.696;2023-03-23T05:01:56;12.00;99.90
22968;DHT22;11650;48.106;-1.696;2023-03-23T05:04:22;12.00;99.90
22968;DHT22;11650;48.106;-1.696;2023-03-23T05:06:48;12.10;99.90
22968;DHT22;11650;48.106;-1.696;2023-03-23T05:09:14;12.10;99.90
22968;DHT22;11650;48.106;-1.696;2023-03-23T05:11:40;12.10;99.90
22968;DHT22;11650;48.106;-1.696;2023-03-23T05:14:05;12.10;99.90
22968;DHT22;11650;48.106;-1.696;2023-03-23T05:16:31;12.10;99.90
22968;DHT22;11650;48.106;-1.696;2023-03-23T05:18:57;12.10;99.90
22968;DHT22;11650;48.106;-1.696;2023-03-23T05:21:25;12.10;99.90
22968;DHT22;11650;48.106;-1.696;2023-03-23T05:23:51;12.10;99.90
22968;DHT22;11650;48.106;-1.696;2023-03-23T05:26:23;12.10;99.90
22968;DHT22;11650;48.106;-1.696;2023-03-23T05:28:56;12.10;99.90
22968;DHT22;11650;48.106;-1.696;2023-03-23T05:31:22;12.10;99.90
22968;DHT22;11650;48.106;-1.696;2023-03-23T05:33:49;12.10;99.90
22968;DHT22;11650;48.106;-1.696;2023-03-23T05:36:15;12.10;99.90
22968;DHT22;11650;48.106;-1.696;2023-03-23T05:38:41;12.10;99.90
22968;DHT22;11650;48.106;-1.696;2023-03-23T05:41:14;12.10;99.90
22968;DHT22;11650;48.106;-1.696;2023-03-23T05:43:40;12.10;99.90
22968;DHT22;11650;48.106;-1.696;2023-03-23T05:46:05;12.10;99.90
22968;DHT22;11650;48.106;-1.696;2023-03-23T05:48:32;12.00;99.90
22968;DHT22;11650;48.106;-1.696;2023-03-23T05:50:58;12.10;99.90
22968;DHT22;11650;48.106;-1.696;2023-03-23T05:53:24;12.10;99.90
22968;DHT22;11650;48.106;-1.696;2023-03-23T05:55:50;12.10;99.90
22968;DHT22;11650;48.106;-1.696;2023-03-23T05:58:15;12.10;99.90
22968;DHT22;11650;48.106;-1.696;2023-03-23T06:00:41;12.10;99.90
22968;DHT22;11650;48.106;-1.696;2023-03-23T06:03:07;12.10;99.90
22968;DHT22;11650;48.106;-1.696;2023-03-23T06:05:33;12.10;99.90
22968;DHT22;11650;48.106;-1.696;2023-03-23T06:07:59;12.10;99.90
22968;DHT22;11650;48.106;-1.696;2023-03-23T06:10:25;12.10;99.90
22968;DHT22;11650;48.106;-1.696;2023-03-23T06:12:52;12.10;99.90
22968;DHT22;11650;48.106;-1.696;2023-03-23T06:15:18;12.10;99.90
22968;DHT22;11650;48.106;-1.696;2023-03-23T06:17:44;12.10;99.90
22968;DHT22;11650;48.106;-1.696;2023-03-23T06:20:10;12.10;99.90
22968;DHT22;11650;48.106;-1.696;2023-03-23T06:22:39;12.10;99.90
22968;DHT22;11650;48.106;-1.696;2023-03-23T06:25:06;12.10;99.90
22968;DHT22;11650;48.106;-1.696;2023-03-23T06:27:32;12.10;99.90
22968;DHT22;11650;48.106;-1.696;2023-03-23T06:29:58;12.10;99.90
22968;DHT22;11650;48.106;-1.696;2023-03-23T06:32:24;12.10;99.90
22968;DHT22;11650;48.106;-1.696;2023-03-23T06:34:51;12.20;99.90
22968;DHT22;11650;48.106;-1.696;2023-03-23T06:37:16;12.20;99.90
22968;DHT22;11650;48.106;-1.696;2023-03-23T06:39:43;12.20;99.90
22968;DHT22;11650;48.106;-1.696;2023-03-23T06:42:10;12.20;99.90
22968;DHT22;11650;48.106;-1.696;2023-03-23T06:44:37;12.20;99.90
22968;DHT22;11650;48.106;-1.696;2023-03-23T06:47:03;12.20;99.90
22968;DHT22;11650;48.106;-1.696;2023-03-23T06:49:29;12.30;99.90
22968;DHT22;11650;48.106;-1.696;2023-03-23T06:51:55;12.30;99.90
22968;DHT22;11650;48.106;-1.696;2023-03-23T06:54:21;12.40;99.90
22968;DHT22;11650;48.106;-1.696;2023-03-23T06:56:47;12.50;99.90
22968;DHT22;11650;48.106;-1.696;2023-03-23T06:59:13;12.50;99.90
22968;DHT22;11650;48.106;-1.696;2023-03-23T07:01:39;12.50;99.90
22968;DHT22;11650;48.106;-1.696;2023-03-23T07:04:05;12.50;99.90
22968;DHT22;11650;48.106;-1.696;2023-03-23T07:06:31;12.50;99.90
22968;DHT22;11650;48.106;-1.696;2023-03-23T07:08:57;12.60;99.90
22968;DHT22;11650;48.106;-1.696;2023-03-23T07:11:23;12.60;99.90
22968;DHT22;11650;48.106;-1.696;2023-03-23T07:13:49;12.70;99.90
22968;DHT22;11650;48.106;-1.696;2023-03-23T07:16:16;12.70;99.90
22968;DHT22;11650;48.106;-1.696;2023-03-23T07:18:43;12.70;99.90
22968;DHT22;11650;48.106;-1.696;2023-03-23T07:21:08;12.80;99.90
22968;DHT22;11650;48.106;-1.696;2023-03-23T07:23:34;12.80;99.90
22968;DHT22;11650;48.106;-1.696;2023-03-23T07:26:00;12.80;99.90
22968;DHT22;11650;48.106;-1.696;2023-03-23T07:28:26;12.90;99.90
22968;DHT22;11650;48.106;-1.696;2023-03-23T07:30:52;12.90;99.90
22968;DHT22;11650;48.106;-1.696;2023-03-23T07:33:18;13.00;99.90
22968;DHT22;11650;48.106;-1.696;2023-03-23T07:35:44;13.00;99.90
22968;DHT22;11650;48.106;-1.696;2023-03-23T07:38:09;13.00;99.90
22968;DHT22;11650;48.106;-1.696;2023-03-23T07:40:35;13.00;99.90
22968;DHT22;11650;48.106;-1.696;2023-03-23T07:43:03;13.10;99.90
22968;DHT22;11650;48.106;-1.696;2023-03-23T07:45:29;13.20;99.90
22968;DHT22;11650;48.106;-1.696;2023-03-23T07:47:55;13.30;99.90
22968;DHT22;11650;48.106;-1.696;2023-03-23T07:50:21;13.30;99.90
22968;DHT22;11650;48.106;-1.696;2023-03-23T07:52:50;13.40;99.90
22968;DHT22;11650;48.106;-1.696;2023-03-23T07:55:16;13.40;99.90
22968;DHT22;11650;48.106;-1.696;2023-03-23T07:57:45;13.30;99.90
22968;DHT22;11650;48.106;-1.696;2023-03-23T08:00:11;13.30;99.90
22968;DHT22;11650;48.106;-1.696;2023-03-23T08:02:52;13.30;99.90
22968;DHT22;11650;48.106;-1.696;2023-03-23T08:05:19;13.30;99.90
22968;DHT22;11650;48.106;-1.696;2023-03-23T08:07:46;13.40;99.90
22968;DHT22;11650;48.106;-1.696;2023-03-23T08:10:13;13.40;99.90
22968;DHT22;11650;48.106;-1.696;2023-03-23T08:12:41;13.40;99.90
22968;DHT22;11650;48.106;-1.696;2023-03-23T08:15:09;13.40;99.90
22968;DHT22;11650;48.106;-1.696;2023-03-23T08:17:35;13.40;99.90
22968;DHT22;11650;48.106;-1.696;2023-03-23T08:20:02;13.40;99.90
22968;DHT22;11650;48.106;-1.696;2023-03-23T08:22:34;13.50;99.90
22968;DHT22;11650;48.106;-1.696;2023-03-23T08:25:02;13.50;99.90
22968;DHT22;11650;48.106;-1.696;2023-03-23T08:27:29;13.60;99.90
22968;DHT22;11650;48.106;-1.696;2023-03-23T08:29:55;13.70;99.90
22968;DHT22;11650;48.106;-1.696;2023-03-23T08:32:20;13.80;99.90
22968;DHT22;11650;48.106;-1.696;2023-03-23T08:34:46;13.90;99.90
22968;DHT22;11650;48.106;-1.696;2023-03-23T08:37:12;13.90;99.90
22968;DHT22;11650;48.106;-1.696;2023-03-23T08:39:38;13.90;99.90
22968;DHT22;11650;48.106;-1.696;2023-03-23T08:42:04;14.00;99.90
22968;DHT22;11650;48.106;-1.696;2023-03-23T08:44:30;13.90;99.90
22968;DHT22;11650;48.106;-1.696;2023-03-23T08:46:55;14.00;99.90
22968;DHT22;11650;48.106;-1.696;2023-03-23T08:49:22;14.00;99.90
22968;DHT22;11650;48.106;-1.696;2023-03-23T08:51:48;14.00;99.90
22968;DHT22;11650;48.106;-1.696;2023-03-23T08:54:14;13.80;99.90
22968;DHT22;11650;48.106;-1.696;2023-03-23T08:56:40;13.80;99.90
22968;DHT22;11650;48.106;-1.696;2023-03-23T08:59:06;13.70;99.90
22968;DHT22;11650;48.106;-1.696;2023-03-23T09:01:32;13.70;99.90
22968;DHT22;11650;48.106;-1.696;2023-03-23T09:03:58;13.70;99.90
22968;DHT22;11650;48.106;-1.696;2023-03-23T09:06:25;13.60;99.90
22968;DHT22;11650;48.106;-1.696;2023-03-23T09:08:51;13.50;99.90
22968;DHT22;11650;48.106;-1.696;2023-03-23T09:11:17;13.50;99.90
22968;DHT22;11650;48.106;-1.696;2023-03-23T09:13:43;13.40;99.90
22968;DHT22;11650;48.106;-1.696;2023-03-23T09:16:09;13.40;99.90
22968;DHT22;11650;48.106;-1.696;2023-03-23T09:18:35;13.50;99.90
22968;DHT22;11650;48.106;-1.696;2023-03-23T09:21:02;13.60;99.90
22968;DHT22;11650;48.106;-1.696;2023-03-23T09:23:28;13.70;99.90
22968;DHT22;11650;48.106;-1.696;2023-03-23T09:25:55;13.80;99.90
22968;DHT22;11650;48.106;-1.696;2023-03-23T09:28:21;13.90;99.90
22968;DHT22;11650;48.106;-1.696;2023-03-23T09:30:47;13.90;99.90
22968;DHT22;11650;48.106;-1.696;2023-03-23T09:33:13;14.00;99.90
22968;DHT22;11650;48.106;-1.696;2023-03-23T09:35:40;13.90;99.90
22968;DHT22;11650;48.106;-1.696;2023-03-23T09:38:08;13.90;99.90
22968;DHT22;11650;48.106;-1.696;2023-03-23T09:40:57;14.00;99.90
22968;DHT22;11650;48.106;-1.696;2023-03-23T09:47:08;14.50;99.90
22968;DHT22;11650;48.106;-1.696;2023-03-23T09:49:48;14.70;99.90
22968;DHT22;11650;48.106;-1.696;2023-03-23T09:52:18;14.70;99.90
22968;DHT22;11650;48.106;-1.696;2023-03-23T09:54:49;14.80;99.90
22968;DHT22;11650;48.106;-1.696;2023-03-23T09:57:52;14.80;99.90
22968;DHT22;11650;48.106;-1.696;2023-03-23T10:00:30;14.60;99.90
22968;DHT22;11650;48.106;-1.696;2023-03-23T10:03:06;14.70;99.90
22968;DHT22;11650;48.106;-1.696;2023-03-23T10:05:41;14.50;99.90
22968;DHT22;11650;48.106;-1.696;2023-03-23T10:11:00;14.50;99.90
22968;DHT22;11650;48.106;-1.696;2023-03-23T10:17:20;14.70;99.90
22968;DHT22;11650;48.106;-1.696;2023-03-23T10:19:35;14.80;99.90
22968;DHT22;11650;48.106;-1.696;2023-03-23T10:22:11;14.80;99.90
22968;DHT22;11650;48.106;-1.696;2023-03-23T10:27:42;14.80;99.90
22968;DHT22;11650;48.106;-1.696;2023-03-23T10:30:29;14.90;99.90
22968;DHT22;11650;48.106;-1.696;2023-03-23T10:33:13;15.00;99.90
22968;DHT22;11650;48.106;-1.696;2023-03-23T10:35:48;15.00;99.90
22968;DHT22;11650;48.106;-1.696;2023-03-23T10:38:31;14.80;99.90
22968;DHT22;11650;48.106;-1.696;2023-03-23T10:41:04;14.80;99.90
22968;DHT22;11650;48.106;-1.696;2023-03-23T10:43:31;14.70;99.90
22968;DHT22;11650;48.106;-1.696;2023-03-23T10:46:01;14.60;99.90
22968;DHT22;11650;48.106;-1.696;2023-03-23T10:48:35;14.50;99.90
22968;DHT22;11650;48.106;-1.696;2023-03-23T10:51:04;14.40;99.90
22968;DHT22;11650;48.106;-1.696;2023-03-23T10:53:36;14.40;99.90
22968;DHT22;11650;48.106;-1.696;2023-03-23T10:56:03;14.30;99.90
22968;DHT22;11650;48.106;-1.696;2023-03-23T10:58:34;14.40;99.90
22968;DHT22;11650;48.106;-1.696;2023-03-23T11:01:03;14.40;99.90
22968;DHT22;11650;48.106;-1.696;2023-03-23T11:03:38;14.40;99.90
22968;DHT22;11650;48.106;-1.696;2023-03-23T11:06:10;14.40;99.90
22968;DHT22;11650;48.106;-1.696;2023-03-23T11:08:46;14.40;99.90
22968;DHT22;11650;48.106;-1.696;2023-03-23T11:11:21;14.30;99.90
22968;DHT22;11650;48.106;-1.696;2023-03-23T11:13:55;14.30;99.90
22968;DHT22;11650;48.106;-1.696;2023-03-23T11:16:23;14.20;99.90
22968;DHT22;11650;48.106;-1.696;2023-03-23T11:18:49;14.30;99.90
22968;DHT22;11650;48.106;-1.696;2023-03-23T11:21:15;14.50;99.90
22968;DHT22;11650;48.106;-1.696;2023-03-23T11:23:46;14.80;99.90
22968;DHT22;11650;48.106;-1.696;2023-03-23T11:26:22;15.00;99.90
22968;DHT22;11650;48.106;-1.696;2023-03-23T11:31:27;14.90;99.90
22968;DHT22;11650;48.106;-1.696;2023-03-23T11:33:58;14.80;99.90
22968;DHT22;11650;48.106;-1.696;2023-03-23T11:36:35;14.60;99.90
22968;DHT22;11650;48.106;-1.696;2023-03-23T11:39:02;14.50;99.90
22968;DHT22;11650;48.106;-1.696;2023-03-23T11:41:33;14.50;99.90
22968;DHT22;11650;48.106;-1.696;2023-03-23T11:44:08;14.50;99.90
22968;DHT22;11650;48.106;-1.696;2023-03-23T11:46:47;14.50;99.90
22968;DHT22;11650;48.106;-1.696;2023-03-23T11:52:46;14.90;99.90
22968;DHT22;11650;48.106;-1.696;2023-03-23T11:55:17;14.90;99.90
22968;DHT22;11650;48.106;-1.696;2023-03-23T11:57:44;15.00;99.90
22968;DHT22;11650;48.106;-1.696;2023-03-23T12:05:56;15.30;99.90
22968;DHT22;11650;48.106;-1.696;2023-03-23T12:13:53;15.70;99.90
22968;DHT22;11650;48.106;-1.696;2023-03-23T12:19:26;15.90;99.90
22968;DHT22;11650;48.106;-1.696;2023-03-23T12:27:44;16.10;99.90
22968;DHT22;11650;48.106;-1.696;2023-03-23T12:35:57;16.40;99.90
22968;DHT22;11650;48.106;-1.696;2023-03-23T12:41:22;16.10;99.90
22968;DHT22;11650;48.106;-1.696;2023-03-23T12:48:50;16.00;99.90
22968;DHT22;11650;48.106;-1.696;2023-03-23T12:54:07;16.20;99.90
22968;DHT22;11650;48.106;-1.696;2023-03-23T12:59:39;16.40;99.90
22968;DHT22;11650;48.106;-1.696;2023-03-23T13:04:47;16.50;99.90
22968;DHT22;11650;48.106;-1.696;2023-03-23T13:07:19;16.30;99.90
22968;DHT22;11650;48.106;-1.696;2023-03-23T13:09:53;16.30;99.90
22968;DHT22;11650;48.106;-1.696;2023-03-23T13:12:21;16.30;99.90
22968;DHT22;11650;48.106;-1.696;2023-03-23T13:23:28;16.70;99.90
22968;DHT22;11650;48.106;-1.696;2023-03-23T13:26:03;16.50;99.90
22968;DHT22;11650;48.106;-1.696;2023-03-23T13:28:35;16.30;99.90
22968;DHT22;11650;48.106;-1.696;2023-03-23T13:31:33;16.30;99.90
22968;DHT22;11650;48.106;-1.696;2023-03-23T13:36:42;16.50;99.90
22968;DHT22;11650;48.106;-1.696;2023-03-23T13:39:20;16.40;99.90
22968;DHT22;11650;48.106;-1.696;2023-03-23T13:50:03;16.20;99.90
22968;DHT22;11650;48.106;-1.696;2023-03-23T13:56:04;15.90;99.90
22968;DHT22;11650;48.106;-1.696;2023-03-23T14:05:49;15.60;99.90
22968;DHT22;11650;48.106;-1.696;2023-03-23T14:08:22;15.80;99.90
22968;DHT22;11650;48.106;-1.696;2023-03-23T14:16:21;16.60;99.90
22968;DHT22;11650;48.106;-1.696;2023-03-23T14:18:52;16.30;99.90
22968;DHT22;11650;48.106;-1.696;2023-03-23T14:21:33;16.20;99.90
22968;DHT22;11650;48.106;-1.696;2023-03-23T14:24:01;16.10;99.90
22968;DHT22;11650;48.106;-1.696;2023-03-23T14:26:27;15.90;99.90
22968;DHT22;11650;48.106;-1.696;2023-03-23T14:28:53;15.60;99.90
22968;DHT22;11650;48.106;-1.696;2023-03-23T14:31:24;15.40;99.90
22968;DHT22;11650;48.106;-1.696;2023-03-23T14:33:51;15.10;99.90
22968;DHT22;11650;48.106;-1.696;2023-03-23T14:36:24;15.00;99.90
22968;DHT22;11650;48.106;-1.696;2023-03-23T14:41:41;14.60;99.90
22968;DHT22;11650;48.106;-1.696;2023-03-23T14:44:14;14.60;99.90
22968;DHT22;11650;48.106;-1.696;2023-03-23T14:46:42;14.50;99.90
22968;DHT22;11650;48.106;-1.696;2023-03-23T14:49:13;14.40;99.90
22968;DHT22;11650;48.106;-1.696;2023-03-23T14:51:51;14.30;99.90
22968;DHT22;11650;48.106;-1.696;2023-03-23T14:54:22;14.30;99.90
22968;DHT22;11650;48.106;-1.696;2023-03-23T14:56:48;14.20;99.90
22968;DHT22;11650;48.106;-1.696;2023-03-23T14:59:14;14.10;99.90
22968;DHT22;11650;48.106;-1.696;2023-03-23T15:01:41;14.00;99.90
22968;DHT22;11650;48.106;-1.696;2023-03-23T15:04:19;13.90;99.90
22968;DHT22;11650;48.106;-1.696;2023-03-23T15:06:58;13.80;99.90
22968;DHT22;11650;48.106;-1.696;2023-03-23T15:09:25;13.70;99.90
22968;DHT22;11650;48.106;-1.696;2023-03-23T15:11:54;13.60;99.90
22968;DHT22;11650;48.106;-1.696;2023-03-23T15:14:29;13.60;99.90
22968;DHT22;11650;48.106;-1.696;2023-03-23T15:16:57;13.60;99.90
22968;DHT22;11650;48.106;-1.696;2023-03-23T15:19:34;13.50;99.90
22968;DHT22;11650;48.106;-1.696;2023-03-23T15:22:12;13.40;99.90
22968;DHT22;11650;48.106;-1.696;2023-03-23T15:24:40;13.40;99.90
22968;DHT22;11650;48.106;-1.696;2023-03-23T15:29:46;13.40;99.90
22968;DHT22;11650;48.106;-1.696;2023-03-23T15:32:12;13.40;99.90
22968;DHT22;11650;48.106;-1.696;2023-03-23T15:34:38;13.40;99.90
22968;DHT22;11650;48.106;-1.696;2023-03-23T15:37:17;13.40;99.90
22968;DHT22;11650;48.106;-1.696;2023-03-23T15:39:45;13.40;99.90
22968;DHT22;11650;48.106;-1.696;2023-03-23T15:42:30;13.30;99.90
22968;DHT22;11650;48.106;-1.696;2023-03-23T15:47:57;13.30;99.90
22968;DHT22;11650;48.106;-1.696;2023-03-23T15:52:52;13.30;99.90
22968;DHT22;11650;48.106;-1.696;2023-03-23T15:55:37;13.20;99.90
22968;DHT22;11650;48.106;-1.696;2023-03-23T15:58:11;13.20;99.90
22968;DHT22;11650;48.106;-1.696;2023-03-23T16:00:38;13.20;99.90
22968;DHT22;11650;48.106;-1.696;2023-03-23T16:03:08;13.10;99.90
22968;DHT22;11650;48.106;-1.696;2023-03-23T16:05:35;13.10;99.90
22968;DHT22;11650;48.106;-1.696;2023-03-23T16:08:01;13.10;99.90
22968;DHT22;11650;48.106;-1.696;2023-03-23T16:10:29;13.00;99.90
22968;DHT22;11650;48.106;-1.696;2023-03-23T16:12:54;13.00;99.90
22968;DHT22;11650;48.106;-1.696;2023-03-23T16:15:20;12.90;99.90
22968;DHT22;11650;48.106;-1.696;2023-03-23T16:17:46;12.90;99.90
22968;DHT22;11650;48.106;-1.696;2023-03-23T16:20:15;12.80;99.90
22968;DHT22;11650;48.106;-1.696;2023-03-23T16:22:41;12.80;99.90
22968;DHT22;11650;48.106;-1.696;2023-03-23T16:25:08;12.80;99.90
22968;DHT22;11650;48.106;-1.696;2023-03-23T16:27:34;12.90;99.90
22968;DHT22;11650;48.106;-1.696;2023-03-23T16:30:00;12.90;99.90
22968;DHT22;11650;48.106;-1.696;2023-03-23T16:32:28;12.80;99.90
22968;DHT22;11650;48.106;-1.696;2023-03-23T16:34:53;12.90;99.90
22968;DHT22;11650;48.106;-1.696;2023-03-23T16:37:20;12.80;99.90
22968;DHT22;11650;48.106;-1.696;2023-03-23T16:39:46;12.80;99.90
22968;DHT22;11650;48.106;-1.696;2023-03-23T16:42:11;12.90;99.90
22968;DHT22;11650;48.106;-1.696;2023-03-23T16:44:37;12.80;99.90
22968;DHT22;11650;48.106;-1.696;2023-03-23T16:47:02;12.90;99.90
22968;DHT22;11650;48.106;-1.696;2023-03-23T16:49:28;12.90;99.90
22968;DHT22;11650;48.106;-1.696;2023-03-23T16:51:54;12.80;99.90
22968;DHT22;11650;48.106;-1.696;2023-03-23T16:54:20;12.80;99.90
22968;DHT22;11650;48.106;-1.696;2023-03-23T16:56:45;12.80;99.90
22968;DHT22;11650;48.106;-1.696;2023-03-23T16:59:13;12.80;99.90
22968;DHT22;11650;48.106;-1.696;2023-03-23T17:01:38;12.80;99.90
22968;DHT22;11650;48.106;-1.696;2023-03-23T17:04:05;12.70;99.90
22968;DHT22;11650;48.106;-1.696;2023-03-23T17:06:31;12.70;99.90
22968;DHT22;11650;48.106;-1.696;2023-03-23T17:08:57;12.80;99.90
22968;DHT22;11650;48.106;-1.696;2023-03-23T17:11:22;12.70;99.90
22968;DHT22;11650;48.106;-1.696;2023-03-23T17:13:48;12.80;99.90
22968;DHT22;11650;48.106;-1.696;2023-03-23T17:16:14;12.70;99.90
22968;DHT22;11650;48.106;-1.696;2023-03-23T17:18:40;12.70;99.90
22968;DHT22;11650;48.106;-1.696;2023-03-23T17:21:06;12.70;99.90
22968;DHT22;11650;48.106;-1.696;2023-03-23T17:23:32;12.80;99.90
22968;DHT22;11650;48.106;-1.696;2023-03-23T17:25:58;12.70;99.90
22968;DHT22;11650;48.106;-1.696;2023-03-23T17:28:23;12.70;99.90
22968;DHT22;11650;48.106;-1.696;2023-03-23T17:30:50;12.80;99.90
22968;DHT22;11650;48.106;-1.696;2023-03-23T17:33:16;12.80;99.90
22968;DHT22;11650;48.106;-1.696;2023-03-23T17:35:44;12.80;99.90
22968;DHT22;11650;48.106;-1.696;2023-03-23T17:38:10;12.80;99.90
22968;DHT22;11650;48.106;-1.696;2023-03-23T17:40:36;12.80;99.90